createdAt,value
2023-02-12T00:01:02.005Z,62.50
2023-02-12T00:03:28.146Z,62.74
2023-02-12T00:05:54.588Z,62.43
2023-02-12T00:08:20.828Z,62.75
2023-02-12T00:10:46.939Z,62.70
2023-02-12T00:13:13.067Z,62.58
2023-02-12T00:15:39.243Z,62.70
2023-02-12T00:18:05.430Z,62.45
2023-02-12T00:20:32.232Z,62.38
2023-02-12T00:22:58.339Z,62.75
2023-02-12T00:25:24.440Z,62.71
2023-02-12T00:27:50.607Z,62.69
2023-02-12T00:30:16.701Z,62.45
2023-02-12T00:32:42.812Z,62.75
2023-02-12T00:35:08.964Z,62.70
2023-02-12T00:37:35.089Z,62.65
2023-02-12T00:40:01.201Z,62.52
2023-02-12T00:42:27.332Z,62.65
2023-02-12T00:44:53.458Z,62.75
2023-02-12T00:47:19.584Z,62.74
2023-02-12T00:49:45.796Z,62.73
2023-02-12T00:52:11.909Z,62.67
2023-02-12T00:54:38.026Z,62.80
2023-02-12T00:57:04.138Z,62.74
2023-02-12T00:59:30.246Z,62.92
2023-02-12T01:01:56.392Z,62.84
2023-02-12T01:04:22.587Z,62.71
2023-02-12T01:06:48.688Z,62.74
2023-02-12T01:09:14.783Z,62.53
2023-02-12T01:11:40.902Z,62.65
2023-02-12T01:14:06.991Z,62.58
2023-02-12T01:16:33.105Z,62.59
2023-02-12T01:18:59.236Z,62.39
2023-02-12T01:21:25.332Z,62.78
2023-02-12T01:23:51.458Z,62.45
2023-02-12T01:26:18.303Z,62.78
2023-02-12T01:28:44.424Z,62.85
2023-02-12T01:31:10.611Z,62.78
2023-02-12T01:33:36.792Z,62.92
2023-02-12T01:36:02.892Z,62.83
2023-02-12T01:38:29.001Z,62.84
2023-02-12T01:40:55.117Z,62.87
2023-02-12T01:43:21.215Z,62.75
2023-02-12T01:45:47.306Z,62.81
2023-02-12T01:48:13.427Z,62.76
2023-02-12T01:50:39.508Z,62.56
2023-02-12T01:53:05.625Z,62.53
2023-02-12T01:55:32.236Z,62.68
2023-02-12T01:57:58.330Z,62.62
2023-02-12T02:00:24.433Z,62.68
2023-02-12T02:02:50.596Z,62.58
2023-02-12T02:05:16.702Z,62.50
2023-02-12T02:07:42.796Z,62.40
2023-02-12T02:10:08.929Z,62.50
2023-02-12T02:12:35.042Z,62.45
2023-02-12T02:15:01.164Z,62.50
2023-02-12T02:17:27.272Z,62.69
2023-02-12T02:19:53.375Z,62.40
2023-02-12T02:22:19.487Z,62.52
2023-02-12T02:24:45.619Z,62.50
2023-02-12T02:27:11.719Z,62.51
2023-02-12T02:29:37.815Z,62.66
2023-02-12T02:32:03.994Z,62.54
2023-02-12T02:34:30.106Z,62.54
2023-02-12T02:37:00.929Z,62.56
2023-02-12T02:39:27.357Z,62.43
2023-02-12T02:41:53.487Z,62.41
2023-02-12T02:44:19.589Z,62.43
2023-02-12T02:46:45.757Z,62.22
2023-02-12T02:49:11.863Z,62.32
2023-02-12T02:51:37.970Z,62.50
2023-02-12T02:54:04.096Z,62.32
2023-02-12T02:56:30.213Z,62.26
2023-02-12T02:58:56.322Z,62.48
2023-02-12T03:01:22.514Z,62.45
2023-02-12T03:03:48.663Z,62.25
2023-02-12T03:06:14.771Z,62.52
2023-02-12T03:08:40.890Z,62.35
2023-02-12T03:11:06.997Z,62.48
2023-02-12T03:13:33.122Z,62.31
2023-02-12T03:15:59.289Z,62.41
2023-02-12T03:18:25.418Z,62.43
2023-02-12T03:20:51.522Z,62.47
2023-02-12T03:23:17.644Z,62.37
2023-02-12T03:25:43.751Z,62.39
2023-02-12T03:28:09.878Z,62.68
2023-02-12T03:30:36.567Z,62.58
2023-02-12T03:33:02.673Z,62.48
2023-02-12T03:35:28.775Z,62.37
2023-02-12T03:37:54.903Z,62.23
2023-02-12T03:40:20.994Z,62.40
2023-02-12T03:42:47.087Z,62.50
2023-02-12T03:45:13.234Z,62.39
2023-02-12T03:47:39.344Z,62.45
2023-02-12T03:50:05.450Z,62.27
2023-02-12T03:52:31.580Z,62.13
2023-02-12T03:54:57.666Z,62.48
2023-02-12T03:57:23.753Z,62.44
2023-02-12T03:59:49.918Z,62.47
2023-02-12T04:02:16.051Z,62.40
2023-02-12T04:04:42.259Z,62.36
2023-02-12T04:07:08.411Z,62.32
2023-02-12T04:09:34.520Z,62.30
2023-02-12T04:12:00.631Z,62.36
2023-02-12T04:14:26.781Z,62.42
2023-02-12T04:16:53.235Z,62.32
2023-02-12T04:19:19.575Z,62.22
2023-02-12T04:21:45.696Z,62.42
2023-02-12T04:24:11.791Z,62.30
2023-02-12T04:26:37.907Z,62.48
2023-02-12T04:29:04.046Z,62.33
2023-02-12T04:31:30.326Z,62.56
2023-02-12T04:33:56.462Z,62.54
2023-02-12T04:36:23.135Z,62.65
2023-02-12T04:38:49.262Z,62.48
2023-02-12T04:41:15.361Z,62.57
2023-02-12T04:43:41.477Z,62.39
2023-02-12T04:46:07.664Z,62.40
2023-02-12T04:48:33.808Z,62.51
2023-02-12T04:50:59.940Z,62.47
2023-02-12T04:53:26.122Z,62.56
2023-02-12T04:55:52.242Z,62.43
2023-02-12T04:58:18.361Z,62.47
2023-02-12T05:00:44.456Z,62.62
2023-02-12T05:03:10.556Z,62.55
2023-02-12T05:05:36.727Z,62.29
2023-02-12T05:08:02.823Z,62.34
2023-02-12T05:10:28.930Z,62.48
2023-02-12T05:12:55.066Z,62.29
2023-02-12T05:15:21.154Z,62.32
2023-02-12T05:17:47.251Z,62.51
2023-02-12T05:20:13.375Z,62.39
2023-02-12T05:22:39.465Z,62.73
2023-02-12T05:25:05.582Z,62.57
2023-02-12T05:27:31.719Z,62.60
2023-02-12T05:29:57.819Z,62.49
2023-02-12T05:32:23.917Z,62.54
2023-02-12T05:34:50.047Z,62.54
2023-02-12T05:37:16.161Z,62.34
2023-02-12T05:39:42.264Z,62.43
2023-02-12T05:42:08.377Z,62.55
2023-02-12T05:44:34.475Z,62.65
2023-02-12T05:47:00.575Z,62.54
2023-02-12T05:49:26.705Z,62.34
2023-02-12T05:51:52.787Z,62.27
2023-02-12T05:54:18.891Z,62.47
2023-02-12T05:56:45.067Z,62.54
2023-02-12T05:59:11.172Z,62.29
2023-02-12T06:01:37.285Z,62.37
2023-02-12T06:04:03.457Z,62.43
2023-02-12T06:06:29.595Z,62.56
2023-02-12T06:08:55.735Z,62.30
2023-02-12T06:11:21.867Z,62.53
2023-02-12T06:13:47.958Z,62.48
2023-02-12T06:16:14.079Z,62.58
2023-02-12T06:18:40.242Z,62.53
2023-02-12T06:21:06.343Z,62.60
2023-02-12T06:23:32.451Z,62.36
2023-02-12T06:25:58.727Z,62.45
2023-02-12T06:28:24.992Z,62.45
2023-02-12T06:30:51.321Z,62.56
2023-02-12T06:33:17.536Z,62.62
2023-02-12T06:35:43.676Z,62.39
2023-02-12T06:38:09.778Z,62.65
2023-02-12T06:40:36.039Z,62.64
2023-02-12T06:43:02.151Z,62.47
2023-02-12T06:45:28.268Z,62.72
2023-02-12T06:47:54.394Z,62.54
2023-02-12T06:50:20.503Z,62.61
2023-02-12T06:52:46.625Z,62.43
2023-02-12T06:55:12.756Z,62.58
2023-02-12T06:57:38.870Z,62.56
2023-02-12T07:00:04.963Z,62.67
2023-02-12T07:02:31.092Z,62.59
2023-02-12T07:04:57.205Z,62.54
2023-02-12T07:07:23.316Z,62.69
2023-02-12T07:09:49.476Z,62.59
2023-02-12T07:12:15.567Z,62.62
2023-02-12T07:14:41.670Z,62.60
2023-02-12T07:17:07.798Z,62.44
2023-02-12T07:19:33.902Z,62.42
2023-02-12T07:22:00.000Z,62.69
2023-02-12T07:24:26.118Z,62.76
2023-02-12T07:26:52.221Z,62.47
2023-02-12T07:29:18.321Z,62.52
2023-02-12T07:31:44.520Z,62.54
2023-02-12T07:34:10.654Z,62.46
2023-02-12T07:36:36.750Z,62.45
2023-02-12T07:39:02.857Z,62.51
2023-02-12T07:41:28.962Z,62.39
2023-02-12T07:43:55.082Z,62.70
2023-02-12T07:46:22.330Z,62.59
2023-02-12T07:48:48.468Z,62.65
2023-02-12T07:51:14.665Z,62.68
2023-02-12T07:53:40.787Z,62.54
2023-02-12T07:56:06.884Z,62.71
2023-02-12T07:58:32.987Z,62.44
2023-02-12T08:00:59.106Z,62.58
2023-02-12T08:03:25.199Z,62.36
2023-02-12T08:05:51.287Z,62.65
2023-02-12T08:08:17.397Z,62.60
2023-02-12T08:10:43.493Z,62.50
2023-02-12T08:13:09.616Z,62.58
2023-02-12T08:15:35.795Z,62.72
2023-02-12T08:18:01.894Z,62.47
2023-02-12T08:20:28.032Z,62.46
2023-02-12T08:22:54.216Z,62.69
2023-02-12T08:25:20.307Z,62.51
2023-02-12T08:27:46.395Z,62.67
2023-02-12T08:30:15.096Z,62.61
2023-02-12T08:32:41.511Z,62.66
2023-02-12T08:35:07.615Z,62.71
2023-02-12T08:37:33.737Z,62.75
2023-02-12T08:39:59.829Z,62.44
2023-02-12T08:42:25.931Z,62.74
2023-02-12T08:44:52.046Z,62.60
2023-02-12T08:47:18.152Z,62.73
2023-02-12T08:49:44.258Z,62.67
2023-02-12T08:52:10.384Z,62.56
2023-02-12T08:54:36.481Z,62.54
2023-02-12T08:57:02.596Z,62.50
2023-02-12T08:59:28.720Z,62.43
2023-02-12T09:01:54.828Z,62.43
2023-02-12T09:04:20.925Z,62.45
2023-02-12T09:06:47.051Z,62.60
2023-02-12T09:09:13.165Z,62.48
2023-02-12T09:11:39.281Z,62.76
2023-02-12T09:14:05.407Z,62.61
2023-02-12T09:16:31.503Z,62.54
2023-02-12T09:18:57.620Z,62.54
2023-02-12T09:21:23.836Z,62.67
2023-02-12T09:23:49.950Z,62.62
2023-02-12T09:26:16.056Z,62.70
2023-02-12T09:28:42.260Z,62.66
2023-02-12T09:31:08.423Z,62.67
2023-02-12T09:33:34.648Z,62.66
2023-02-12T09:36:00.764Z,62.50
2023-02-12T09:38:26.868Z,62.45
2023-02-12T09:40:52.967Z,62.65
2023-02-12T09:43:19.079Z,62.67
2023-02-12T09:45:45.242Z,62.43
2023-02-12T09:48:11.351Z,62.43
2023-02-12T09:50:37.992Z,62.58
2023-02-12T09:53:04.087Z,62.56
2023-02-12T09:55:30.216Z,62.50
2023-02-12T09:57:56.347Z,62.51
2023-02-12T10:00:22.463Z,62.48
2023-02-12T10:02:48.561Z,62.67
2023-02-12T10:05:14.705Z,62.46
2023-02-12T10:07:40.843Z,62.42
2023-02-12T10:10:08.074Z,62.63
2023-02-12T10:12:34.291Z,62.48
2023-02-12T10:15:00.408Z,62.63
2023-02-12T10:17:26.510Z,62.37
2023-02-12T10:19:53.124Z,62.76
2023-02-12T10:22:19.243Z,62.40
2023-02-12T10:24:45.401Z,62.51
2023-02-12T10:27:11.537Z,62.69
2023-02-12T10:29:37.644Z,62.61
2023-02-12T10:32:03.736Z,62.76
2023-02-12T10:34:29.839Z,62.71
2023-02-12T10:36:55.945Z,62.46
2023-02-12T10:39:22.042Z,62.61
2023-02-12T10:41:48.158Z,62.40
2023-02-12T10:44:14.249Z,62.64
2023-02-12T10:46:40.358Z,62.70
2023-02-12T10:49:06.503Z,62.42
2023-02-12T10:51:32.590Z,62.61
2023-02-12T10:53:58.703Z,62.69
2023-02-12T10:56:24.857Z,62.45
2023-02-12T10:58:51.008Z,62.59
2023-02-12T11:01:17.317Z,62.48
2023-02-12T11:03:43.539Z,62.62
2023-02-12T11:06:09.681Z,62.53
2023-02-12T11:08:35.826Z,62.64
2023-02-12T11:11:01.954Z,62.77
2023-02-12T11:13:28.042Z,62.41
2023-02-12T11:15:54.178Z,62.45
2023-02-12T11:18:20.349Z,62.47
2023-02-12T11:20:46.449Z,62.67
2023-02-12T11:23:12.551Z,62.60
2023-02-12T11:25:39.175Z,62.52
2023-02-12T11:28:05.397Z,62.47
2023-02-12T11:30:31.561Z,62.72
2023-02-12T11:32:57.688Z,62.65
2023-02-12T11:35:23.784Z,62.51
2023-02-12T11:37:49.904Z,62.74
2023-02-12T11:40:16.039Z,62.41
2023-02-12T11:42:42.178Z,62.56
2023-02-12T11:45:08.284Z,62.64
2023-02-12T11:47:34.478Z,62.41
2023-02-12T11:50:00.596Z,62.68
2023-02-12T11:52:26.701Z,62.51
2023-02-12T11:54:52.837Z,62.49
2023-02-12T11:57:18.935Z,62.58
2023-02-12T11:59:45.030Z,62.48
2023-02-12T12:02:11.211Z,62.70
2023-02-12T12:04:37.336Z,62.74
2023-02-12T12:07:03.459Z,62.64
2023-02-12T12:09:29.581Z,62.35
2023-02-12T12:11:55.684Z,62.69
2023-02-12T12:14:21.787Z,62.76
2023-02-12T12:16:47.907Z,62.41
2023-02-12T12:19:14.014Z,62.52
2023-02-12T12:21:40.119Z,62.58
2023-02-12T12:24:06.325Z,62.74
2023-02-12T12:26:32.442Z,62.36
2023-02-12T12:28:58.548Z,62.66
2023-02-12T12:31:24.756Z,62.40
2023-02-12T12:33:50.862Z,62.52
2023-02-12T12:36:16.962Z,62.68
2023-02-12T12:38:43.087Z,62.42
2023-02-12T12:41:09.210Z,62.71
2023-02-12T12:43:35.311Z,62.88
2023-02-12T12:46:01.476Z,62.42
2023-02-12T12:48:27.916Z,62.43
2023-02-12T12:50:54.033Z,62.62
2023-02-12T12:53:20.443Z,62.54
2023-02-12T12:55:46.553Z,62.49
2023-02-12T12:58:12.676Z,62.61
2023-02-12T13:00:38.794Z,62.59
2023-02-12T13:03:04.973Z,62.74
2023-02-12T13:05:31.077Z,62.63
2023-02-12T13:07:57.214Z,62.71
2023-02-12T13:10:23.332Z,62.51
2023-02-12T13:12:49.444Z,62.56
2023-02-12T13:15:15.554Z,62.66
2023-02-12T13:17:41.656Z,62.65
2023-02-12T13:20:07.773Z,62.53
2023-02-12T13:22:33.913Z,62.67
2023-02-12T13:25:00.020Z,62.47
2023-02-12T13:27:26.134Z,62.46
2023-02-12T13:29:52.321Z,62.65
2023-02-12T13:32:18.481Z,62.58
2023-02-12T13:34:44.591Z,62.46
2023-02-12T13:37:10.711Z,62.64
2023-02-12T13:39:36.819Z,62.72
2023-02-12T13:42:02.911Z,62.47
2023-02-12T13:44:29.025Z,62.63
2023-02-12T13:46:55.129Z,62.79
2023-02-12T13:49:21.250Z,62.71
2023-02-12T13:51:47.383Z,62.58
2023-02-12T13:54:13.483Z,62.38
2023-02-12T13:56:39.654Z,62.72
2023-02-12T13:59:05.772Z,62.71
2023-02-12T14:01:31.896Z,62.47
2023-02-12T14:03:58.059Z,62.50
2023-02-12T14:06:24.221Z,62.65
2023-02-12T14:08:50.323Z,62.48
2023-02-12T14:11:16.473Z,62.49
2023-02-12T14:13:42.638Z,62.77
2023-02-12T14:16:11.594Z,62.62
2023-02-12T14:18:37.730Z,62.38
2023-02-12T14:21:03.965Z,62.63
2023-02-12T14:23:30.080Z,62.68
2023-02-12T14:25:56.631Z,62.58
2023-02-12T14:28:22.982Z,62.67
2023-02-12T14:30:49.162Z,62.41
2023-02-12T14:33:15.347Z,62.70
2023-02-12T14:35:41.957Z,62.66
2023-02-12T14:38:08.047Z,62.34
2023-02-12T14:40:34.230Z,62.69
2023-02-12T14:43:00.357Z,62.59
2023-02-12T14:45:26.484Z,62.42
2023-02-12T14:47:52.599Z,62.45
2023-02-12T14:50:18.722Z,62.64
2023-02-12T14:52:44.817Z,62.38
2023-02-12T14:55:10.916Z,62.56
2023-02-12T14:57:37.774Z,62.67
2023-02-12T15:00:03.932Z,62.62
2023-02-12T15:02:30.078Z,62.48
2023-02-12T15:04:56.222Z,62.84
2023-02-12T15:07:22.382Z,62.69
2023-02-12T15:09:48.486Z,62.67
2023-02-12T15:12:14.609Z,62.73
2023-02-12T15:14:40.709Z,62.79
2023-02-12T15:17:06.797Z,62.31
2023-02-12T15:19:32.929Z,62.47
2023-02-12T15:21:59.021Z,62.60
2023-02-12T15:24:25.123Z,62.69
2023-02-12T15:26:51.243Z,62.58
2023-02-12T15:29:17.341Z,62.79
2023-02-12T15:31:43.520Z,62.53
2023-02-12T15:34:09.718Z,62.39
2023-02-12T15:36:35.813Z,62.70
2023-02-12T15:39:01.926Z,62.71
2023-02-12T15:41:28.045Z,62.53
2023-02-12T15:43:54.143Z,62.59
2023-02-12T15:46:20.277Z,62.75
2023-02-12T15:48:46.451Z,62.58
2023-02-12T15:51:12.582Z,62.68
2023-02-12T15:53:38.774Z,62.58
2023-02-12T15:56:04.890Z,62.50
2023-02-12T15:58:30.999Z,62.58
2023-02-12T16:00:57.111Z,62.77
2023-02-12T16:03:23.240Z,62.87
2023-02-12T16:05:49.330Z,62.85
2023-02-12T16:08:15.437Z,62.77
2023-02-12T16:10:41.559Z,62.63
2023-02-12T16:13:07.655Z,62.72
2023-02-12T16:15:33.760Z,62.76
2023-02-12T16:17:59.968Z,62.48
2023-02-12T16:20:26.074Z,62.62
2023-02-12T16:22:52.171Z,62.54
2023-02-12T16:25:18.299Z,62.83
2023-02-12T16:27:44.389Z,62.76
2023-02-12T16:30:10.503Z,62.60
2023-02-12T16:32:36.646Z,62.74
2023-02-12T16:35:02.801Z,62.69
2023-02-12T16:37:28.898Z,62.64
2023-02-12T16:39:55.648Z,62.69
2023-02-12T16:42:21.748Z,62.80
2023-02-12T16:44:47.849Z,62.93
2023-02-12T16:47:14.043Z,62.81
2023-02-12T16:49:40.167Z,62.70
2023-02-12T16:52:06.262Z,62.67
2023-02-12T16:54:32.391Z,62.84
2023-02-12T16:57:00.240Z,62.61
2023-02-12T16:59:26.354Z,62.89
2023-02-12T17:01:52.518Z,62.86
2023-02-12T17:04:18.628Z,63.00
2023-02-12T17:06:44.736Z,62.52
2023-02-12T17:09:10.881Z,62.93
2023-02-12T17:11:37.002Z,62.98
2023-02-12T17:14:03.127Z,62.71
2023-02-12T17:16:31.122Z,62.66
2023-02-12T17:18:57.803Z,62.93
2023-02-12T17:21:23.902Z,62.77
2023-02-12T17:23:50.025Z,62.69
2023-02-12T17:26:16.132Z,62.89
2023-02-12T17:28:42.256Z,62.60
2023-02-12T17:31:08.428Z,62.89
2023-02-12T17:33:34.549Z,62.81
2023-02-12T17:36:00.655Z,62.92
2023-02-12T17:38:26.771Z,62.91
2023-02-12T17:40:52.909Z,62.68
2023-02-12T17:43:19.144Z,62.64
2023-02-12T17:45:45.962Z,62.64
2023-02-12T17:48:12.067Z,62.77
2023-02-12T17:50:38.160Z,62.56
2023-02-12T17:53:04.310Z,62.85
2023-02-12T17:55:30.444Z,62.89
2023-02-12T17:57:56.549Z,62.75
2023-02-12T18:00:22.704Z,62.65
2023-02-12T18:02:48.829Z,62.95
2023-02-12T18:05:14.930Z,62.80
2023-02-12T18:07:41.048Z,62.67
2023-02-12T18:10:07.154Z,62.90
2023-02-12T18:12:33.262Z,62.82
2023-02-12T18:14:59.458Z,62.82
2023-02-12T18:17:25.574Z,62.81
2023-02-12T18:19:51.674Z,62.89
2023-02-12T18:22:17.802Z,62.79
2023-02-12T18:24:43.920Z,62.62
2023-02-12T18:27:10.020Z,63.12
2023-02-12T18:29:36.148Z,62.76
2023-02-12T18:32:02.288Z,62.71
2023-02-12T18:34:28.412Z,62.73
2023-02-12T18:36:54.535Z,62.71
2023-02-12T18:39:20.651Z,62.88
2023-02-12T18:41:46.761Z,62.73
2023-02-12T18:44:12.883Z,62.82
2023-02-12T18:46:38.996Z,62.94
2023-02-12T18:49:05.095Z,63.00
2023-02-12T18:51:31.208Z,62.79
2023-02-12T18:53:57.314Z,62.80
2023-02-12T18:56:23.422Z,62.76
2023-02-12T18:58:49.531Z,62.67
2023-02-12T19:01:15.645Z,62.55
2023-02-12T19:03:41.847Z,62.67
2023-02-12T19:06:08.563Z,62.67
2023-02-12T19:08:34.676Z,62.83
2023-02-12T19:11:00.785Z,62.72
2023-02-12T19:13:26.916Z,62.89
2023-02-12T19:15:53.324Z,62.65
2023-02-12T19:18:19.493Z,62.89
2023-02-12T19:20:45.629Z,62.82
2023-02-12T19:23:11.725Z,62.80
2023-02-12T19:25:37.837Z,62.92
2023-02-12T19:28:03.958Z,62.69
2023-02-12T19:30:30.141Z,62.99
2023-02-12T19:32:56.278Z,62.68
2023-02-12T19:35:22.401Z,62.96
2023-02-12T19:37:48.508Z,62.90
2023-02-12T19:40:14.636Z,62.86
2023-02-12T19:42:40.761Z,62.68
2023-02-12T19:45:06.871Z,62.71
2023-02-12T19:47:32.975Z,62.98
2023-02-12T19:49:59.593Z,62.78
2023-02-12T19:52:25.700Z,62.47
2023-02-12T19:54:51.820Z,62.72
2023-02-12T19:57:17.948Z,62.78
2023-02-12T19:59:44.039Z,62.72
2023-02-12T20:02:10.136Z,62.86
2023-02-12T20:04:36.267Z,62.67
2023-02-12T20:07:02.374Z,63.01
2023-02-12T20:09:28.498Z,62.84
2023-02-12T20:11:54.618Z,62.95
2023-02-12T20:14:20.793Z,62.68
2023-02-12T20:16:46.940Z,63.01
2023-02-12T20:19:13.054Z,63.01
2023-02-12T20:21:39.157Z,62.87
2023-02-12T20:24:05.245Z,62.72
2023-02-12T20:26:31.394Z,62.72
2023-02-12T20:28:57.491Z,62.54
2023-02-12T20:31:23.770Z,62.86
2023-02-12T20:33:49.982Z,62.72
2023-02-12T20:36:16.084Z,62.93
2023-02-12T20:38:42.198Z,62.77
2023-02-12T20:41:08.338Z,62.79
2023-02-12T20:43:34.480Z,62.79
2023-02-12T20:46:00.613Z,62.80
2023-02-12T20:48:26.752Z,62.95
2023-02-12T20:50:52.850Z,62.80
2023-02-12T20:53:19.003Z,63.00
2023-02-12T20:55:45.769Z,62.77
2023-02-12T20:58:11.867Z,62.83
2023-02-12T21:00:37.961Z,62.71
2023-02-12T21:03:04.168Z,63.00
2023-02-12T21:05:30.346Z,62.77
2023-02-12T21:07:56.437Z,62.90
2023-02-12T21:10:22.558Z,62.78
2023-02-12T21:12:48.688Z,62.83
2023-02-12T21:15:14.798Z,62.85
2023-02-12T21:17:40.960Z,62.98
2023-02-12T21:20:07.056Z,62.77
2023-02-12T21:22:33.163Z,62.95
2023-02-12T21:24:59.292Z,63.00
2023-02-12T21:27:25.404Z,62.92
2023-02-12T21:29:51.521Z,62.83
2023-02-12T21:32:17.783Z,62.93
2023-02-12T21:34:43.890Z,62.81
2023-02-12T21:37:10.004Z,62.63
2023-02-12T21:39:36.144Z,62.86
2023-02-12T21:42:02.295Z,62.62
2023-02-12T21:44:28.476Z,62.77
2023-02-12T21:46:54.634Z,62.94
2023-02-12T21:49:20.746Z,62.95
2023-02-12T21:51:46.861Z,62.83
2023-02-12T21:54:12.972Z,62.90
2023-02-12T21:56:39.073Z,62.97
2023-02-12T21:59:05.208Z,62.93
2023-02-12T22:01:31.363Z,62.97
2023-02-12T22:03:57.461Z,62.71
2023-02-12T22:06:23.549Z,62.98
2023-02-12T22:08:49.682Z,63.08
2023-02-12T22:11:15.789Z,63.00
2023-02-12T22:13:41.971Z,62.83
2023-02-12T22:16:08.244Z,63.00
2023-02-12T22:18:37.332Z,62.91
2023-02-12T22:21:03.896Z,62.94
2023-02-12T22:23:30.396Z,63.01
2023-02-12T22:25:56.505Z,63.11
2023-02-12T22:28:22.650Z,62.91
2023-02-12T22:30:48.770Z,63.10
2023-02-12T22:33:14.883Z,63.05
2023-02-12T22:35:40.992Z,63.06
2023-02-12T22:38:07.116Z,62.94
2023-02-12T22:40:33.234Z,62.81
2023-02-12T22:42:59.482Z,62.74
2023-02-12T22:45:25.604Z,62.86
2023-02-12T22:47:51.701Z,62.89
2023-02-12T22:50:17.809Z,62.92
2023-02-12T22:52:43.929Z,62.85
2023-02-12T22:55:10.052Z,62.75
2023-02-12T22:57:36.175Z,62.96
2023-02-12T23:00:03.022Z,63.07
2023-02-12T23:02:29.123Z,63.05
2023-02-12T23:04:55.246Z,62.92
2023-02-12T23:07:21.370Z,63.09
2023-02-12T23:09:47.472Z,62.79
2023-02-12T23:12:13.569Z,62.88
2023-02-12T23:14:39.721Z,62.87
2023-02-12T23:17:05.830Z,62.81
2023-02-12T23:19:31.920Z,63.02
2023-02-12T23:21:58.056Z,62.99
2023-02-12T23:24:24.196Z,63.00
2023-02-12T23:26:50.309Z,62.91
2023-02-12T23:29:16.450Z,62.83
2023-02-12T23:31:42.662Z,62.79
2023-02-12T23:34:08.876Z,63.00
2023-02-12T23:36:35.007Z,62.75
2023-02-12T23:39:01.123Z,63.06
2023-02-12T23:41:27.257Z,62.90
2023-02-12T23:43:53.375Z,63.02
2023-02-12T23:46:19.536Z,62.91
2023-02-12T23:48:45.646Z,63.06
2023-02-12T23:51:11.771Z,62.86
2023-02-12T23:53:37.881Z,63.05
2023-02-12T23:56:03.997Z,62.89
2023-02-12T23:58:30.140Z,62.82
